createdAt,value
2019-02-05T00:00:35.835Z,40.00
2019-02-05T00:05:39.403Z,44.10
2019-02-05T00:10:42.363Z,46.33
2019-02-05T00:15:44.862Z,37.93
2019-02-05T00:20:48.434Z,46.43
2019-02-05T00:25:52.056Z,43.03
2019-02-05T00:30:55.633Z,44.93
2019-02-05T00:35:59.109Z,36.70
2019-02-05T00:41:03.348Z,41.97
2019-02-05T00:46:06.211Z,33.53
2019-02-05T00:51:09.807Z,36.57
2019-02-05T00:56:17.631Z,44.13
2019-02-05T01:01:17.827Z,30.70
2019-02-05T01:06:21.300Z,32.83
2019-02-05T01:11:24.667Z,31.43
2019-02-05T01:16:27.245Z,30.97
2019-02-05T01:21:30.473Z,30.97
2019-02-05T01:26:34.058Z,32.37
2019-02-05T01:31:37.786Z,31.17
2019-02-05T01:36:41.034Z,29.10
2019-02-05T01:41:44.509Z,33.77
2019-02-05T01:46:47.970Z,30.67
2019-02-05T01:51:50.902Z,30.00
2019-02-05T01:56:54.496Z,33.17
2019-02-05T02:01:57.758Z,29.27
2019-02-05T02:07:01.209Z,37.33
2019-02-05T02:12:04.795Z,33.40
2019-02-05T02:17:08.316Z,31.90
2019-02-05T02:22:11.509Z,35.60
2019-02-05T02:27:15.079Z,39.20
2019-02-05T02:32:18.262Z,40.40
2019-02-05T02:37:20.769Z,42.40
2019-02-05T02:42:23.976Z,36.47
2019-02-05T02:47:27.867Z,42.50
2019-02-05T02:52:31.233Z,36.60
2019-02-05T02:57:34.416Z,46.40
2019-02-05T03:02:37.295Z,45.23
2019-02-05T03:07:40.208Z,46.60
2019-02-05T03:12:43.852Z,38.73
2019-02-05T03:17:46.649Z,47.97
2019-02-05T03:22:49.851Z,49.37
2019-02-05T03:27:54.278Z,49.00
2019-02-05T03:32:57.667Z,47.87
2019-02-05T03:38:01.145Z,47.73
2019-02-05T03:43:04.849Z,58.87
2019-02-05T03:48:08.071Z,48.33
2019-02-05T03:53:11.953Z,54.80
2019-02-05T03:58:42.948Z,56.87
2019-02-05T04:04:45.656Z,51.13
2019-02-05T04:10:27.167Z,53.60
2019-02-05T04:16:39.387Z,52.13
2019-02-05T04:22:19.387Z,48.50
2019-02-05T04:27:43.864Z,53.97
2019-02-05T04:33:23.741Z,60.90
2019-02-05T04:38:46.103Z,53.77
2019-02-05T04:44:42.453Z,54.77
2019-02-05T04:50:24.017Z,66.60
2019-02-05T04:56:14.722Z,57.00
2019-02-05T05:02:02.342Z,69.40
2019-02-05T05:07:24.937Z,63.13
2019-02-05T05:12:31.786Z,50.83
2019-02-05T05:17:34.602Z,60.50
2019-02-05T05:22:37.876Z,49.27
2019-02-05T05:27:41.976Z,56.73
2019-02-05T05:32:44.505Z,58.10
2019-02-05T05:37:47.747Z,66.30
2019-02-05T05:42:50.960Z,62.17
2019-02-05T05:47:54.208Z,49.60
2019-02-05T05:52:57.137Z,59.70
2019-02-05T05:58:00.684Z,50.77
2019-02-05T06:03:03.649Z,51.20
2019-02-05T06:08:16.086Z,55.47
2019-02-05T06:13:19.504Z,58.97
2019-02-05T06:18:22.748Z,61.73
2019-02-05T06:23:26.059Z,71.47
2019-02-05T06:28:34.698Z,71.47
2019-02-05T06:33:33.976Z,70.47
2019-02-05T06:38:37.105Z,55.87
2019-02-05T06:43:40.615Z,59.00
2019-02-05T06:48:43.126Z,62.40
2019-02-05T06:53:45.615Z,65.23
2019-02-05T06:58:48.811Z,60.47
2019-02-05T07:03:52.352Z,68.50
2019-02-05T07:08:55.592Z,52.93
2019-02-05T07:13:59.273Z,52.33
2019-02-05T07:19:02.526Z,51.73
2019-02-05T07:24:05.934Z,55.37
2019-02-05T07:29:09.356Z,62.63
2019-02-05T07:34:12.666Z,48.40
2019-02-05T07:39:15.668Z,57.80
2019-02-05T07:44:18.530Z,58.57
2019-02-05T07:49:21.746Z,52.73
2019-02-05T07:54:23.901Z,60.03
2019-02-05T07:59:26.856Z,63.13
2019-02-05T08:04:30.435Z,47.70
2019-02-05T08:09:35.030Z,54.00
2019-02-05T08:14:39.571Z,50.27
2019-02-05T08:19:42.228Z,55.90
2019-02-05T08:24:45.135Z,67.23
2019-02-05T08:29:48.383Z,75.03
2019-02-05T08:34:52.040Z,61.20
2019-02-05T08:39:55.684Z,57.53
2019-02-05T08:44:59.130Z,62.63
2019-02-05T08:50:02.439Z,62.63
2019-02-05T08:55:07.182Z,63.30
2019-02-05T09:00:14.448Z,56.90
2019-02-05T09:05:20.527Z,48.67
2019-02-05T09:10:28.644Z,53.47
2019-02-05T09:15:32.002Z,47.13
2019-02-05T09:20:34.923Z,50.13
2019-02-05T09:25:38.488Z,49.47
2019-02-05T09:30:41.808Z,51.20
2019-02-05T09:35:45.080Z,54.07
2019-02-05T09:40:48.785Z,38.30
2019-02-05T09:45:52.060Z,41.00
2019-02-05T09:50:55.688Z,34.97
2019-02-05T09:55:58.724Z,48.83
2019-02-05T10:01:02.140Z,49.47
2019-02-05T10:06:05.465Z,61.33
2019-02-05T10:11:08.454Z,55.60
2019-02-05T10:16:10.998Z,50.00
2019-02-05T10:21:14.282Z,55.20
2019-02-05T10:26:17.163Z,56.43
2019-02-05T10:31:20.476Z,45.27
2019-02-05T10:36:24.076Z,50.97
2019-02-05T10:41:27.290Z,35.60
2019-02-05T10:46:30.557Z,47.43
2019-02-05T10:51:33.926Z,36.53
2019-02-05T10:56:37.447Z,41.73
2019-02-05T11:01:40.044Z,46.20
2019-02-05T11:06:44.501Z,40.33
2019-02-05T11:11:50.198Z,43.00
2019-02-05T11:16:54.474Z,56.57
2019-02-05T11:21:57.804Z,43.70
2019-02-05T11:27:01.109Z,37.87
2019-02-05T11:32:04.565Z,43.67
2019-02-05T11:37:07.942Z,50.97
2019-02-05T11:42:10.481Z,46.30
2019-02-05T11:47:13.801Z,40.83
2019-02-05T11:52:17.054Z,43.03
2019-02-05T11:57:20.000Z,31.63
2019-02-05T12:02:23.111Z,35.97
2019-02-05T12:07:26.074Z,38.83
2019-02-05T12:12:28.690Z,34.33
2019-02-05T12:17:32.368Z,45.27
2019-02-05T12:22:35.719Z,52.63
2019-02-05T12:27:39.006Z,39.93
2019-02-05T12:32:42.589Z,37.10
2019-02-05T12:37:45.181Z,37.93
2019-02-05T12:42:48.529Z,39.33
2019-02-05T12:47:51.814Z,41.50
2019-02-05T12:52:55.594Z,40.93
2019-02-05T12:57:59.977Z,33.80
2019-02-05T13:03:03.548Z,42.90
2019-02-05T13:08:07.584Z,40.93
2019-02-05T13:13:11.015Z,48.30
2019-02-05T13:18:14.396Z,44.33
2019-02-05T13:23:17.656Z,39.23
2019-02-05T13:28:21.020Z,41.67
2019-02-05T13:33:24.318Z,48.03
2019-02-05T13:38:28.010Z,41.87
2019-02-05T13:43:31.131Z,40.17
2019-02-05T13:48:34.478Z,23.93
2019-02-05T13:53:37.886Z,56.77
2019-02-05T13:58:41.530Z,37.25
2019-02-05T14:03:46.041Z,33.03
2019-02-05T14:08:49.641Z,40.43
2019-02-05T14:13:52.633Z,41.87
2019-02-05T14:18:55.938Z,36.20
2019-02-05T14:23:59.435Z,33.20
2019-02-05T14:29:02.393Z,48.00
2019-02-05T14:34:06.241Z,33.83
2019-02-05T14:39:11.003Z,34.53
2019-02-05T14:44:14.355Z,38.97
2019-02-05T14:49:17.592Z,38.77
2019-02-05T14:54:20.213Z,36.73
2019-02-05T14:59:23.099Z,46.67
2019-02-05T15:04:26.738Z,35.67
2019-02-05T15:09:29.727Z,33.00
2019-02-05T15:14:32.965Z,33.17
2019-02-05T15:19:36.321Z,38.17
2019-02-05T15:24:40.987Z,34.37
2019-02-05T15:29:43.943Z,30.40
2019-02-05T15:34:46.878Z,30.77
2019-02-05T15:39:50.299Z,34.07
2019-02-05T15:44:53.917Z,39.30
2019-02-05T15:50:05.846Z,35.13
2019-02-05T15:55:02.234Z,34.67
2019-02-05T16:00:08.064Z,47.10
2019-02-05T16:05:12.321Z,29.40
2019-02-05T16:10:15.755Z,30.17
2019-02-05T16:15:19.120Z,31.63
2019-02-05T16:20:22.317Z,33.47
2019-02-05T16:25:25.566Z,29.63
2019-02-05T16:30:28.826Z,48.43
2019-02-05T16:35:32.135Z,44.77
2019-02-05T16:40:35.487Z,39.50
2019-02-05T16:45:38.671Z,48.03
2019-02-05T16:50:43.618Z,34.77
2019-02-05T16:55:47.716Z,34.67
2019-02-05T17:00:53.398Z,40.63
2019-02-05T17:05:57.185Z,34.63
2019-02-05T17:11:00.225Z,38.13
2019-02-05T17:16:04.061Z,42.33
2019-02-05T17:21:06.898Z,41.87
2019-02-05T17:26:10.328Z,37.90
2019-02-05T17:31:13.956Z,35.10
2019-02-05T17:36:17.028Z,46.47
2019-02-05T17:41:20.733Z,43.80
2019-02-05T17:46:25.808Z,40.57
2019-02-05T17:51:29.293Z,33.87
2019-02-05T17:56:32.641Z,39.73
2019-02-05T18:01:36.426Z,44.93
2019-02-05T18:06:39.699Z,33.47
2019-02-05T18:11:43.568Z,33.60
2019-02-05T18:16:47.343Z,52.30
2019-02-05T18:21:51.966Z,41.00
2019-02-05T18:26:57.287Z,36.90
2019-02-05T18:32:02.369Z,49.77
2019-02-05T18:37:06.419Z,34.67
2019-02-05T18:42:12.103Z,32.50
2019-02-05T18:47:17.095Z,31.70
2019-02-05T18:52:23.906Z,35.27
2019-02-05T18:57:29.257Z,45.00
2019-02-05T19:02:33.867Z,37.87
2019-02-05T19:07:42.010Z,39.40
2019-02-05T19:12:48.284Z,34.33
2019-02-05T19:17:54.527Z,34.53
2019-02-05T19:22:59.786Z,34.40
2019-02-05T19:28:04.457Z,48.27
2019-02-05T19:33:09.247Z,34.83
2019-02-05T19:38:16.108Z,34.27
2019-02-05T19:43:23.396Z,26.60
2019-02-05T19:48:35.040Z,37.83
2019-02-05T19:53:42.857Z,45.27
2019-02-05T19:58:49.961Z,35.33
2019-02-05T20:03:56.471Z,46.13
2019-02-05T20:09:04.364Z,47.07
2019-02-05T20:14:09.369Z,57.70
2019-02-05T20:19:14.489Z,42.57
2019-02-05T20:24:19.709Z,36.53
2019-02-05T20:29:25.142Z,37.97
2019-02-05T20:34:33.662Z,40.13
2019-02-05T20:39:40.821Z,47.03
2019-02-05T20:44:47.281Z,45.80
2019-02-05T20:49:54.366Z,35.07
2019-02-05T20:55:00.953Z,43.43
2019-02-05T21:00:14.937Z,69.17
2019-02-05T21:05:20.106Z,48.67
2019-02-05T21:10:27.424Z,48.40
2019-02-05T21:15:31.987Z,34.70
2019-02-05T21:20:36.743Z,45.17
2019-02-05T21:25:41.566Z,45.40
2019-02-05T21:30:46.474Z,62.60
2019-02-05T21:35:50.066Z,38.53
2019-02-05T21:40:54.499Z,43.33
2019-02-05T21:46:00.970Z,55.33
2019-02-05T21:51:05.099Z,49.67
2019-02-05T21:56:08.435Z,51.57
2019-02-05T22:01:14.527Z,43.10
2019-02-05T22:06:17.432Z,57.17
2019-02-05T22:11:20.982Z,52.70
2019-02-05T22:16:24.890Z,65.53
2019-02-05T22:21:27.843Z,65.93
2019-02-05T22:26:31.463Z,58.67
2019-02-05T22:31:34.791Z,60.93
2019-02-05T22:36:38.031Z,62.73
2019-02-05T22:41:40.879Z,78.27
2019-02-05T22:46:43.922Z,84.73
2019-02-05T22:51:46.879Z,80.20
2019-02-05T22:56:49.898Z,108.50
2019-02-05T23:01:56.906Z,95.93
2019-02-05T23:07:04.214Z,101.03
2019-02-05T23:12:13.863Z,98.70
2019-02-05T23:17:17.212Z,110.30
2019-02-05T23:22:21.300Z,126.03
2019-02-05T23:27:24.690Z,122.97
2019-02-05T23:32:28.465Z,111.13
2019-02-05T23:37:31.436Z,129.93
2019-02-05T23:42:34.363Z,108.57
2019-02-05T23:47:38.598Z,111.20
2019-02-05T23:52:42.015Z,119.60
2019-02-05T23:57:45.347Z,92.87
